createdAt,value
2023-06-17T00:00:11.052Z,98406.88
2023-06-17T00:04:13.107Z,98404.28
2023-06-17T00:08:15.183Z,98435.28
2023-06-17T00:12:17.908Z,98436.09
2023-06-17T00:16:22.183Z,98415.97
2023-06-17T00:20:24.867Z,98432.50
2023-06-17T00:24:27.311Z,98429.78
2023-06-17T00:28:29.611Z,98423.41
2023-06-17T00:32:32.071Z,98435.09
2023-06-17T00:36:34.327Z,98442.28
2023-06-17T00:40:36.585Z,98439.00
2023-06-17T00:44:41.216Z,98439.50
2023-06-17T00:48:43.642Z,98461.25
2023-06-17T00:52:47.037Z,98477.28
2023-06-17T00:56:49.459Z,98483.50
2023-06-17T01:00:51.676Z,98500.13
2023-06-17T01:04:59.193Z,98494.53
2023-06-17T01:09:14.631Z,98510.34
2023-06-17T01:13:19.545Z,98514.25
2023-06-17T01:17:22.541Z,98519.63
2023-06-17T01:21:29.778Z,98525.69
2023-06-17T01:25:33.047Z,98519.22
2023-06-17T01:29:39.351Z,98506.56
2023-06-17T01:33:46.916Z,98501.34
2023-06-17T01:37:55.643Z,98493.63
2023-06-17T01:42:00.968Z,98475.06
2023-06-17T01:46:05.752Z,98461.09
2023-06-17T01:50:08.842Z,98450.00
2023-06-17T01:54:11.803Z,98430.50
2023-06-17T01:58:13.934Z,98407.00
2023-06-17T02:02:16.383Z,98381.47
2023-06-17T02:06:18.755Z,98385.13
2023-06-17T02:10:23.833Z,98386.38
2023-06-17T02:14:27.410Z,98365.91
2023-06-17T02:18:29.593Z,98369.72
2023-06-17T02:22:31.799Z,98350.53
2023-06-17T02:26:33.989Z,98332.16
2023-06-17T02:30:38.630Z,98308.53
2023-06-17T02:34:43.800Z,98305.34
2023-06-17T02:38:46.403Z,98340.09
2023-06-17T02:42:48.581Z,98324.38
2023-06-17T02:46:51.720Z,98342.78
2023-06-17T02:50:56.067Z,98350.00
2023-06-17T02:54:58.447Z,98360.53
2023-06-17T02:59:01.806Z,98367.94
2023-06-17T03:03:04.498Z,98372.03
2023-06-17T03:07:07.642Z,98360.91
2023-06-17T03:11:10.407Z,98363.38
2023-06-17T03:15:18.817Z,98380.44
2023-06-17T03:19:21.658Z,98381.38
2023-06-17T03:23:24.720Z,98381.31
2023-06-17T03:27:28.639Z,98379.25
2023-06-17T03:31:31.614Z,98388.94
2023-06-17T03:35:34.885Z,98381.81
2023-06-17T03:39:38.270Z,98371.72
2023-06-17T03:43:41.324Z,98368.78
2023-06-17T03:47:43.687Z,98371.97
2023-06-17T03:51:46.151Z,98383.50
2023-06-17T03:55:49.379Z,98389.69
2023-06-17T03:59:52.092Z,98380.81
2023-06-17T04:03:54.596Z,98389.06
2023-06-17T04:08:00.730Z,98387.34
2023-06-17T04:12:03.939Z,98379.44
2023-06-17T04:16:06.259Z,98381.19
2023-06-17T04:20:13.511Z,98392.69
2023-06-17T04:24:15.945Z,98393.25
2023-06-17T04:28:19.129Z,98400.16
2023-06-17T04:32:22.753Z,98395.59
2023-06-17T04:36:24.901Z,98400.59
2023-06-17T04:40:29.148Z,98394.19
2023-06-17T04:44:32.703Z,98390.56
2023-06-17T04:48:38.388Z,98392.19
2023-06-17T04:52:45.296Z,98394.44
2023-06-17T04:56:49.745Z,98401.00
2023-06-17T05:00:55.295Z,98404.31
2023-06-17T05:05:01.331Z,98406.91
2023-06-17T05:09:03.779Z,98391.25
2023-06-17T05:13:06.952Z,98392.63
2023-06-17T05:17:10.226Z,98407.41
2023-06-17T05:21:12.927Z,98411.72
2023-06-17T05:25:15.406Z,98422.03
2023-06-17T05:29:17.652Z,98426.00
2023-06-17T05:33:21.095Z,98422.25
2023-06-17T05:37:23.899Z,98422.88
2023-06-17T05:41:26.749Z,98424.31
2023-06-17T05:45:29.630Z,98419.69
2023-06-17T05:49:32.450Z,98429.31
2023-06-17T05:53:34.730Z,98433.44
2023-06-17T05:57:38.217Z,98435.78
2023-06-17T06:01:40.880Z,98437.63
2023-06-17T06:05:43.175Z,98446.38
2023-06-17T06:09:45.388Z,98448.53
2023-06-17T06:13:48.252Z,98450.22
2023-06-17T06:17:50.754Z,98453.28
2023-06-17T06:21:52.850Z,98451.00
2023-06-17T06:25:55.132Z,98453.59
2023-06-17T06:29:57.847Z,98458.78
2023-06-17T06:34:00.809Z,98454.56
2023-06-17T06:38:03.215Z,98457.66
2023-06-17T06:42:05.834Z,98463.50
2023-06-17T06:46:28.939Z,98465.34
2023-06-17T06:50:31.819Z,98464.94
2023-06-17T06:54:34.366Z,98472.56
2023-06-17T06:58:37.251Z,98476.66
2023-06-17T07:02:39.522Z,98468.44
2023-06-17T07:06:41.931Z,98481.19
2023-06-17T07:10:49.778Z,98471.06
2023-06-17T07:14:52.162Z,98465.31
2023-06-17T07:18:54.361Z,98473.81
2023-06-17T07:22:58.642Z,98475.53
2023-06-17T07:27:01.828Z,98468.63
2023-06-17T07:31:05.648Z,98465.91
2023-06-17T07:35:08.380Z,98471.88
2023-06-17T07:39:11.774Z,98469.94
2023-06-17T07:43:14.187Z,98459.84
2023-06-17T07:47:16.724Z,98462.75
2023-06-17T07:51:18.861Z,98472.63
2023-06-17T07:55:21.975Z,98473.66
2023-06-17T07:59:24.084Z,98465.16
2023-06-17T08:03:26.552Z,98466.56
2023-06-17T08:07:28.829Z,98474.28
2023-06-17T08:11:31.074Z,98463.66
2023-06-17T08:15:33.598Z,98473.72
2023-06-17T08:19:36.700Z,98470.28
2023-06-17T08:23:40.078Z,98467.72
2023-06-17T08:27:48.693Z,98464.63
2023-06-17T08:31:52.757Z,98470.63
2023-06-17T08:35:55.160Z,98468.19
2023-06-17T08:39:58.030Z,98464.09
2023-06-17T08:44:02.952Z,98455.78
2023-06-17T08:48:06.959Z,98462.25
2023-06-17T08:52:09.731Z,98463.91
2023-06-17T08:56:13.685Z,98469.78
2023-06-17T09:00:16.324Z,98471.06
2023-06-17T09:04:21.398Z,98463.22
2023-06-17T09:08:25.819Z,98463.97
2023-06-17T09:12:37.008Z,98472.75
2023-06-17T09:16:40.116Z,98471.97
2023-06-17T09:20:42.597Z,98464.72
2023-06-17T09:24:44.728Z,98469.75
2023-06-17T09:28:47.008Z,98460.41
2023-06-17T09:32:53.333Z,98464.59
2023-06-17T09:37:02.330Z,98459.84
2023-06-17T09:41:05.556Z,98454.56
2023-06-17T09:45:12.970Z,98452.84
2023-06-17T09:49:23.230Z,98451.38
2023-06-17T09:53:30.986Z,98447.63
2023-06-17T09:57:34.154Z,98441.94
2023-06-17T10:01:40.847Z,98446.19
2023-06-17T10:05:43.210Z,98445.19
2023-06-17T10:09:45.712Z,98447.66
2023-06-17T10:13:56.086Z,98442.78
2023-06-17T10:17:59.029Z,98443.22
2023-06-17T10:22:04.127Z,98438.56
2023-06-17T10:26:12.243Z,98442.25
2023-06-17T10:30:26.870Z,98441.97
2023-06-17T10:34:29.043Z,98441.09
2023-06-17T10:38:31.917Z,98445.19
2023-06-17T10:42:34.250Z,98436.88
2023-06-17T10:46:36.343Z,98446.94
2023-06-17T10:50:38.700Z,98438.81
2023-06-17T10:54:54.650Z,98441.34
2023-06-17T10:58:57.224Z,98438.81
2023-06-17T11:03:00.289Z,98433.50
2023-06-17T11:07:06.123Z,98436.66
2023-06-17T11:11:12.880Z,98431.28
2023-06-17T11:15:15.565Z,98426.47
2023-06-17T11:19:17.697Z,98421.03
2023-06-17T11:23:20.294Z,98415.69
2023-06-17T11:27:22.786Z,98411.00
2023-06-17T11:31:27.348Z,98420.88
2023-06-17T11:35:29.973Z,98415.72
2023-06-17T11:39:32.389Z,98409.09
2023-06-17T11:43:34.772Z,98410.78
2023-06-17T11:47:37.845Z,98409.28
2023-06-17T11:51:48.917Z,98410.34
2023-06-17T11:55:51.062Z,98402.41
2023-06-17T11:59:59.605Z,98397.41
2023-06-17T12:04:02.354Z,98392.13
2023-06-17T12:08:04.902Z,98394.19
2023-06-17T12:12:11.827Z,98387.53
2023-06-17T12:16:25.043Z,98382.41
2023-06-17T12:20:27.888Z,98386.44
2023-06-17T12:24:30.539Z,98380.63
2023-06-17T12:28:33.862Z,98372.03
2023-06-17T12:32:37.315Z,98377.94
2023-06-17T12:36:39.820Z,98379.91
2023-06-17T12:40:42.145Z,98369.75
2023-06-17T12:44:45.862Z,98365.03
2023-06-17T12:48:49.217Z,98359.91
2023-06-17T12:52:52.914Z,98362.63
2023-06-17T12:56:55.025Z,98351.69
2023-06-17T13:00:57.577Z,98362.66
2023-06-17T13:04:59.992Z,98352.47
2023-06-17T13:09:02.305Z,98346.59
2023-06-17T13:13:04.551Z,98346.22
2023-06-17T13:17:07.737Z,98345.03
2023-06-17T13:21:10.410Z,98342.66
2023-06-17T13:25:12.550Z,98345.78
2023-06-17T13:29:15.612Z,98337.53
2023-06-17T13:33:18.263Z,98337.16
2023-06-17T13:37:20.755Z,98335.56
2023-06-17T13:41:23.584Z,98335.63
2023-06-17T13:45:26.033Z,98334.44
2023-06-17T13:49:28.394Z,98344.25
2023-06-17T13:53:32.545Z,98328.16
2023-06-17T13:57:34.723Z,98329.34
2023-06-17T14:01:36.892Z,98334.81
2023-06-17T14:05:39.104Z,98331.31
2023-06-17T14:09:41.363Z,98336.41
2023-06-17T14:13:44.474Z,98338.00
2023-06-17T14:17:47.106Z,98331.66
2023-06-17T14:21:58.150Z,98327.66
2023-06-17T14:26:00.685Z,98333.69
2023-06-17T14:30:04.806Z,98328.19
2023-06-17T14:34:08.039Z,98328.44
2023-06-17T14:38:10.193Z,98325.72
2023-06-17T14:42:13.100Z,98326.56
2023-06-17T14:46:16.067Z,98326.50
2023-06-17T14:50:18.355Z,98322.81
2023-06-17T14:54:20.610Z,98319.75
2023-06-17T14:58:22.793Z,98322.19
2023-06-17T15:02:37.736Z,98314.13
2023-06-17T15:06:40.936Z,98316.50
2023-06-17T15:10:43.090Z,98313.84
2023-06-17T15:14:45.271Z,98308.63
2023-06-17T15:18:47.389Z,98302.47
2023-06-17T15:22:49.694Z,98303.53
2023-06-17T15:26:52.048Z,98303.06
2023-06-17T15:30:54.273Z,98303.34
2023-06-17T15:34:57.056Z,98305.72
2023-06-17T15:39:02.808Z,98305.03
2023-06-17T15:43:05.117Z,98301.69
2023-06-17T15:47:07.415Z,98302.06
2023-06-17T15:51:09.709Z,98291.34
2023-06-17T15:55:11.900Z,98303.72
2023-06-17T15:59:14.171Z,98306.19
2023-06-17T16:03:37.040Z,98305.50
2023-06-17T16:07:39.928Z,98294.69
2023-06-17T16:11:42.081Z,98299.66
2023-06-17T16:15:44.408Z,98295.09
2023-06-17T16:19:46.542Z,98293.44
2023-06-17T16:23:48.920Z,98297.53
2023-06-17T16:27:51.325Z,98297.75
2023-06-17T16:31:53.461Z,98297.56
2023-06-17T16:35:57.168Z,98294.78
2023-06-17T16:39:59.308Z,98304.78
2023-06-17T16:44:02.591Z,98307.47
2023-06-17T16:48:06.218Z,98306.38
2023-06-17T16:52:09.829Z,98308.34
2023-06-17T16:56:12.173Z,98307.41
2023-06-17T17:00:14.780Z,98309.75
2023-06-17T17:04:17.070Z,98310.22
2023-06-17T17:08:19.898Z,98312.56
2023-06-17T17:12:22.466Z,98304.72
2023-06-17T17:16:24.657Z,98322.03
2023-06-17T17:20:27.335Z,98317.50
2023-06-17T17:24:29.504Z,98321.53
2023-06-17T17:28:32.212Z,98316.50
2023-06-17T17:32:34.849Z,98327.13
2023-06-17T17:36:37.443Z,98321.84
2023-06-17T17:40:39.581Z,98330.66
2023-06-17T17:44:41.901Z,98333.03
2023-06-17T17:48:44.040Z,98330.84
2023-06-17T17:52:46.503Z,98337.22
2023-06-17T17:56:48.663Z,98337.38
2023-06-17T18:00:50.936Z,98333.34
2023-06-17T18:04:53.186Z,98330.06
2023-06-17T18:08:55.879Z,98329.06
2023-06-17T18:12:58.066Z,98327.38
2023-06-17T18:17:00.178Z,98333.19
2023-06-17T18:21:02.268Z,98337.59
2023-06-17T18:25:08.481Z,98339.00
2023-06-17T18:29:10.784Z,98340.34
2023-06-17T18:33:13.387Z,98350.06
2023-06-17T18:37:15.757Z,98355.69
2023-06-17T18:41:17.976Z,98358.16
2023-06-17T18:45:20.414Z,98353.25
2023-06-17T18:49:25.091Z,98366.88
2023-06-17T18:53:27.426Z,98372.41
2023-06-17T18:57:30.746Z,98381.66
2023-06-17T19:01:33.608Z,98380.38
2023-06-17T19:05:39.612Z,98390.84
2023-06-17T19:09:41.868Z,98386.78
2023-06-17T19:13:44.300Z,98402.16
2023-06-17T19:17:46.497Z,98404.94
2023-06-17T19:21:48.999Z,98407.22
2023-06-17T19:25:51.367Z,98413.22
2023-06-17T19:30:01.642Z,98424.56
2023-06-17T19:34:04.216Z,98430.28
2023-06-17T19:38:07.574Z,98433.44
2023-06-17T19:42:09.789Z,98445.06
2023-06-17T19:46:12.109Z,98452.47
2023-06-17T19:50:16.367Z,98458.19
2023-06-17T19:54:20.157Z,98477.34
2023-06-17T19:58:23.076Z,98472.13
2023-06-17T20:02:25.368Z,98475.47
2023-06-17T20:06:27.504Z,98477.88
2023-06-17T20:10:30.101Z,98490.41
2023-06-17T20:14:32.488Z,98502.34
2023-06-17T20:18:34.662Z,98492.72
2023-06-17T20:22:36.803Z,98497.31
2023-06-17T20:26:39.877Z,98501.13
2023-06-17T20:30:42.181Z,98493.69
2023-06-17T20:34:44.463Z,98493.63
2023-06-17T20:38:47.311Z,98491.38
2023-06-17T20:42:49.521Z,98494.69
2023-06-17T20:46:53.797Z,98495.28
2023-06-17T20:50:56.267Z,98497.06
2023-06-17T20:54:58.481Z,98502.41
2023-06-17T20:59:00.637Z,98511.47
2023-06-17T21:03:03.570Z,98500.03
2023-06-17T21:07:05.877Z,98512.00
2023-06-17T21:11:08.676Z,98508.38
2023-06-17T21:15:11.182Z,98513.13
2023-06-17T21:19:13.358Z,98516.16
2023-06-17T21:23:15.837Z,98519.50
2023-06-17T21:27:18.070Z,98527.78
2023-06-17T21:31:20.343Z,98518.88
2023-06-17T21:35:22.666Z,98532.13
2023-06-17T21:39:24.804Z,98535.97
2023-06-17T21:43:28.010Z,98538.88
2023-06-17T21:47:30.372Z,98531.75
2023-06-17T21:51:32.790Z,98530.63
2023-06-17T21:55:35.470Z,98534.75
2023-06-17T21:59:37.647Z,98528.72
2023-06-17T22:03:41.549Z,98532.19
2023-06-17T22:07:43.851Z,98525.88
2023-06-17T22:11:46.283Z,98530.44
2023-06-17T22:15:48.405Z,98534.03
2023-06-17T22:19:51.118Z,98531.44
2023-06-17T22:23:53.281Z,98533.97
2023-06-17T22:27:57.060Z,98534.88
2023-06-17T22:31:59.144Z,98536.81
2023-06-17T22:36:01.471Z,98536.19
2023-06-17T22:40:06.700Z,98533.63
2023-06-17T22:44:09.046Z,98530.94
2023-06-17T22:48:11.642Z,98539.38
2023-06-17T22:52:13.827Z,98529.00
2023-06-17T22:56:17.134Z,98536.59
2023-06-17T23:00:19.742Z,98531.69
2023-06-17T23:04:22.216Z,98527.88
2023-06-17T23:08:24.521Z,98538.03
2023-06-17T23:12:26.682Z,98534.47
2023-06-17T23:16:28.853Z,98532.31
2023-06-17T23:20:31.001Z,98539.53
2023-06-17T23:24:33.854Z,98531.69
2023-06-17T23:28:36.035Z,98538.38
2023-06-17T23:32:38.777Z,98537.56
2023-06-17T23:36:41.719Z,98540.56
2023-06-17T23:40:44.475Z,98543.56
2023-06-17T23:44:49.012Z,98548.78
2023-06-17T23:48:51.940Z,98548.56
2023-06-17T23:52:54.733Z,98548.22
2023-06-17T23:56:56.860Z,98552.72
